Time;durP1;ratioP1;P1;durP2;ratioP2;P2;SDS_P1;SDS_P2;PMS_P1;PMS_P2;Temp;Humidity;BMP_temperature;BMP_pressure;BME280_temperature;BME280_humidity;BME280_pressure;Samples;Min_cycle;Max_cycle;Signal;HPM_P1;HPM_P2
2023/09/19 00:00:46;;;;;;;;;0.25;0.00;;;;;16.72;66.58;100597.69;5030627;28;8955;-66
2023/09/19 00:03:14;;;;;;;;;0.00;0.00;;;;;16.71;66.45;100588.72;5030560;28;8840;-69
2023/09/19 00:05:44;;;;;;;;;0.00;0.00;;;;;16.70;66.19;100591.69;5028061;28;8873;-66
2023/09/19 00:08:10;;;;;;;;;0.00;0.00;;;;;16.71;66.53;100598.78;5030299;28;8960;-69
2023/09/19 00:10:38;;;;;;;;;0.00;0.00;;;;;16.66;66.28;100604.94;5031296;28;8871;-70
2023/09/19 00:13:05;;;;;;;;;1.00;1.00;;;;;16.67;66.23;100611.19;5023993;28;8895;-69
2023/09/19 00:15:41;;;;;;;;;2.00;0.00;;;;;16.65;66.66;100608.72;5031717;28;9616;-69
2023/09/19 00:18:08;;;;;;;;;2.00;0.00;;;;;16.62;66.41;100613.81;5022928;28;8835;-69
2023/09/19 00:20:36;;;;;;;;;0.25;0.25;;;;;16.60;66.15;100619.47;5028702;28;8853;-68
2023/09/19 00:23:04;;;;;;;;;1.00;1.00;;;;;16.59;66.00;100619.72;5023099;28;8841;-69
2023/09/19 00:25:32;;;;;;;;;0.25;0.25;;;;;16.55;65.27;100614.75;5011979;28;8817;-69
2023/09/19 00:27:59;;;;;;;;;1.00;1.00;;;;;16.55;64.88;100620.19;5013368;28;8844;-69
2023/09/19 00:30:26;;;;;;;;;0.00;0.00;;;;;16.56;64.90;100623.72;5030397;28;8840;-68
2023/09/19 00:32:54;;;;;;;;;1.00;1.00;;;;;16.50;64.14;100622.81;5008020;28;8852;-69
2023/09/19 00:35:24;;;;;;;;;1.75;0.50;;;;;16.50;63.84;100627.41;5011677;28;8856;-69
2023/09/19 00:37:52;;;;;;;;;0.00;0.00;;;;;16.52;63.93;100625.28;5025659;28;9546;-69
2023/09/19 00:40:19;;;;;;;;;0.00;0.00;;;;;16.53;63.61;100629.66;5011578;28;8845;-68
2023/09/19 00:42:47;;;;;;;;;1.00;1.00;;;;;16.49;62.86;100623.06;4997092;28;8849;-68
2023/09/19 00:45:20;;;;;;;;;1.00;0.00;;;;;16.51;61.97;100629.06;5085095;27;13425;-68
2023/09/19 00:47:49;;;;;;;;;0.00;0.00;;;;;16.51;62.50;100632.59;5064779;28;8956;-70
2023/09/19 00:50:18;;;;;;;;;0.00;0.00;;;;;16.53;62.33;100638.66;5063516;28;8960;-69
2023/09/19 00:52:50;;;;;;;;;0.00;0.00;;;;;16.54;62.57;100642.19;5067365;28;8814;-67
2023/09/19 00:55:19;;;;;;;;;2.00;0.50;;;;;16.52;61.85;100641.56;5075610;28;8860;-69
2023/09/19 00:57:47;;;;;;;;;0.00;0.00;;;;;16.52;61.74;100636.97;5067142;28;8818;-67
2023/09/19 01:00:15;;;;;;;;;1.25;0.00;;;;;16.49;61.41;100634.75;5065144;28;8911;-67
2023/09/19 01:02:43;;;;;;;;;0.00;0.00;;;;;16.48;62.04;100641.22;5065976;28;8838;-67
2023/09/19 01:05:12;;;;;;;;;0.25;0.00;;;;;16.49;62.09;100645.63;5065844;28;8864;-70
2023/09/19 01:07:41;;;;;;;;;0.00;0.00;;;;;16.51;62.24;100646.19;5061421;28;8851;-69
2023/09/19 01:10:14;;;;;;;;;0.50;0.00;;;;;16.50;61.91;100641.00;5065294;28;8846;-68
2023/09/19 01:13:02;;;;;;;;;0.00;0.00;;;;;16.49;61.95;100637.47;5065652;28;9036;-69
2023/09/19 01:15:42;;;;;;;;;1.00;1.00;;;;;16.42;62.02;100630.50;5063039;28;8899;-70
2023/09/19 01:18:40;;;;;;;;;0.00;0.00;;;;;16.44;62.15;100639.22;5062592;28;8837;-71
2023/09/19 01:21:42;;;;;;;;;0.75;0.00;;;;;16.44;62.58;100641.94;5060197;28;9614;-70
2023/09/19 01:24:44;;;;;;;;;1.00;0.00;;;;;16.42;62.54;100644.09;5061911;28;8833;-70
2023/09/19 01:27:19;;;;;;;;;1.00;0.00;;;;;16.44;62.64;100636.50;5053815;28;8890;-67
2023/09/19 01:29:48;;;;;;;;;0.50;0.00;;;;;16.44;62.62;100636.50;5081988;28;8833;-70
2023/09/19 01:32:21;;;;;;;;;1.00;0.00;;;;;16.45;62.99;100640.91;5065339;28;8857;-70
2023/09/19 01:35:00;;;;;;;;;0.00;0.00;;;;;16.44;63.21;100650.09;5063865;28;8817;-69
2023/09/19 01:37:26;;;;;;;;;0.00;0.00;;;;;16.41;62.81;100653.31;5066399;28;9622;-70
2023/09/19 01:40:04;;;;;;;;;2.00;0.00;;;;;16.40;62.84;100649.75;5065139;28;8873;-68
2023/09/19 01:43:05;;;;;;;;;1.00;0.00;;;;;16.39;62.92;100655.41;5060147;28;8940;-69
2023/09/19 01:45:50;;;;;;;;;0.00;0.00;;;;;16.39;62.91;100647.28;5060900;28;8858;-69
2023/09/19 01:48:42;;;;;;;;;0.00;0.00;;;;;16.36;62.96;100650.47;5064950;28;8845;-69
2023/09/19 01:51:11;;;;;;;;;0.25;0.00;;;;;16.34;63.17;100639.84;5065258;28;8823;-68
2023/09/19 01:53:48;;;;;;;;;0.00;0.00;;;;;16.37;63.71;100633.94;5064519;28;9780;-70
2023/09/19 01:56:22;;;;;;;;;0.00;0.00;;;;;16.36;63.46;100631.44;5052857;28;8830;-68
2023/09/19 01:58:56;;;;;;;;;0.50;0.50;;;;;16.35;63.27;100637.94;5050418;28;8820;-69
2023/09/19 02:01:24;;;;;;;;;3.25;0.00;;;;;16.34;63.57;100642.56;5077918;28;9749;-69
2023/09/19 02:03:51;;;;;;;;;0.75;0.75;;;;;16.36;64.03;100643.13;5048169;28;8889;-69
2023/09/19 02:06:21;;;;;;;;;2.00;1.00;;;;;16.38;64.42;100634.75;5085015;28;8840;-69
2023/09/19 02:08:48;;;;;;;;;0.00;0.00;;;;;16.37;65.45;100644.81;5050902;28;8827;-69
2023/09/19 02:11:15;;;;;;;;;3.50;1.00;;;;;16.30;65.61;100650.34;5050653;28;10840;-69
2023/09/19 02:13:43;;;;;;;;;0.75;0.00;;;;;16.26;66.35;100661.94;5051667;28;8846;-69
2023/09/19 02:16:12;;;;;;;;;2.00;0.00;;;;;16.24;66.47;100656.72;5059714;28;9523;-68
2023/09/19 02:18:39;;;;;;;;;0.75;0.00;;;;;16.25;67.10;100663.00;5048268;28;8842;-69
2023/09/19 02:21:12;;;;;;;;;0.00;0.00;;;;;16.26;67.44;100657.31;5065382;28;8826;-69
2023/09/19 02:23:39;;;;;;;;;1.25;0.00;;;;;16.24;67.42;100653.16;5048870;28;8850;-69
2023/09/19 02:26:07;;;;;;;;;2.00;0.00;;;;;16.24;67.83;100658.59;5052331;28;8842;-69
2023/09/19 02:28:35;;;;;;;;;1.50;0.50;;;;;16.22;67.91;100653.41;5052267;28;8831;-70
2023/09/19 02:31:02;;;;;;;;;0.50;0.00;;;;;16.18;67.99;100657.66;5050402;28;8828;-69
2023/09/19 02:33:32;;;;;;;;;1.00;0.00;;;;;16.17;68.26;100658.75;5050639;28;9700;-69
2023/09/19 02:36:00;;;;;;;;;0.00;0.00;;;;;16.15;68.33;100658.13;5049706;28;8846;-68
2023/09/19 02:38:27;;;;;;;;;0.75;0.00;;;;;16.15;68.11;100663.56;5048294;28;8847;-69
2023/09/19 02:40:55;;;;;;;;;1.00;0.00;;;;;16.14;68.07;100667.34;5082522;28;9540;-69
2023/09/19 02:43:22;;;;;;;;;1.00;0.00;;;;;16.08;68.21;100660.13;5050660;28;8888;-69
2023/09/19 02:45:49;;;;;;;;;1.00;1.00;;;;;15.98;68.08;100668.88;5050822;28;8822;-70
2023/09/19 02:48:16;;;;;;;;;1.67;1.00;;;;;15.97;68.33;100661.78;5048778;28;8919;-69
2023/09/19 02:50:44;;;;;;;;;1.00;1.00;;;;;15.92;67.85;100650.81;5049409;28;8920;-70
2023/09/19 02:53:13;;;;;;;;;0.00;0.00;;;;;15.93;68.10;100652.47;5050764;28;8838;-69
2023/09/19 02:55:40;;;;;;;;;0.00;0.00;;;;;15.99;68.11;100648.78;5050100;28;8940;-69
2023/09/19 02:58:14;;;;;;;;;0.00;0.00;;;;;16.04;67.75;100656.22;5050401;28;8829;-69
2023/09/19 03:00:47;;;;;;;;;0.00;0.00;;;;;16.08;67.91;100651.97;5043568;28;8828;-69
2023/09/19 03:03:15;;;;;;;;;1.00;0.00;;;;;16.13;67.94;100643.97;5046422;28;9558;-69
2023/09/19 03:05:46;;;;;;;;;2.00;1.00;;;;;16.15;68.17;100641.84;5051714;28;8838;-69
2023/09/19 03:08:16;;;;;;;;;2.00;1.00;;;;;16.18;68.15;100645.97;5048782;28;8907;-69
2023/09/19 03:10:48;;;;;;;;;0.75;0.00;;;;;16.18;68.45;100644.09;5048851;28;8810;-70
2023/09/19 03:13:16;;;;;;;;;1.33;0.00;;;;;16.18;68.65;100649.53;5050644;28;8829;-69
2023/09/19 03:15:47;;;;;;;;;0.00;0.00;;;;;16.15;68.47;100647.28;5051626;28;9038;-69
2023/09/19 03:18:16;;;;;;;;;1.00;1.00;;;;;16.12;69.16;100650.44;5047190;28;8814;-69
2023/09/19 03:20:52;;;;;;;;;0.00;0.00;;;;;16.10;69.05;100643.63;5042692;28;8897;-68
2023/09/19 03:23:22;;;;;;;;;1.50;0.00;;;;;16.05;68.57;100641.63;5047970;28;8818;-69
2023/09/19 03:25:48;;;;;;;;;0.75;0.25;;;;;16.01;68.64;100648.56;5033399;28;8911;-69
2023/09/19 03:28:16;;;;;;;;;2.00;1.00;;;;;15.90;68.38;100638.53;5049765;28;8830;-69
2023/09/19 03:30:42;;;;;;;;;1.75;1.00;;;;;15.84;68.46;100640.31;5045925;28;8910;-69
2023/09/19 03:33:12;;;;;;;;;1.00;0.00;;;;;15.82;68.71;100645.94;5050184;28;8842;-69
2023/09/19 03:35:39;;;;;;;;;2.00;1.00;;;;;15.85;68.79;100641.13;5050049;28;9004;-68
2023/09/19 03:38:06;;;;;;;;;1.00;1.00;;;;;15.85;68.56;100638.41;5048983;28;8830;-69
2023/09/19 03:40:33;;;;;;;;;0.00;0.00;;;;;15.78;69.13;100652.91;5047915;28;8924;-69
2023/09/19 03:43:03;;;;;;;;;1.00;1.00;;;;;15.78;68.88;100660.22;5047508;28;9073;-68
2023/09/19 03:45:29;;;;;;;;;1.67;0.00;;;;;15.76;68.77;100660.47;5054386;28;9192;-69
2023/09/19 03:47:56;;;;;;;;;1.00;1.00;;;;;15.75;68.85;100664.22;5061928;28;9008;-69
2023/09/19 03:50:23;;;;;;;;;0.25;0.25;;;;;15.75;68.85;100660.69;5052954;28;8901;-69
2023/09/19 03:52:55;;;;;;;;;0.00;0.00;;;;;15.67;68.51;100661.84;5052910;28;8855;-69
2023/09/19 03:55:22;;;;;;;;;1.00;1.00;;;;;15.69;68.39;100662.44;5052079;28;9055;-69
2023/09/19 03:57:50;;;;;;;;;2.00;0.00;;;;;15.67;68.52;100675.41;5068563;28;8926;-70
2023/09/19 04:00:20;;;;;;;;;0.00;0.00;;;;;15.70;68.71;100672.22;5062989;28;8998;-69
2023/09/19 04:02:48;;;;;;;;;0.00;0.00;;;;;15.73;68.25;100674.50;5070977;28;8979;-67
2023/09/19 04:05:15;;;;;;;;;1.00;0.67;;;;;15.75;68.36;100671.53;5052410;28;8987;-69
2023/09/19 04:07:41;;;;;;;;;0.00;0.00;;;;;15.76;68.48;100679.47;5097913;28;9008;-68
2023/09/19 04:10:10;;;;;;;;;0.00;0.00;;;;;15.78;68.70;100673.78;5103327;28;8917;-69
2023/09/19 04:12:36;;;;;;;;;0.67;0.67;;;;;15.79;68.59;100678.97;5090131;28;8899;-69
2023/09/19 04:15:03;;;;;;;;;1.00;0.00;;;;;15.82;68.51;100683.13;5068091;28;8979;-70
2023/09/19 04:17:32;;;;;;;;;0.00;0.00;;;;;15.83;68.48;100687.47;5052969;28;9678;-69
2023/09/19 04:19:59;;;;;;;;;0.67;0.00;;;;;15.86;68.73;100680.78;5058858;28;8857;-69
2023/09/19 04:22:26;;;;;;;;;0.00;0.00;;;;;15.85;68.42;100696.22;5051672;28;8920;-69
2023/09/19 04:24:53;;;;;;;;;0.00;0.00;;;;;15.85;68.11;100692.69;5092833;28;8861;-69
2023/09/19 04:27:19;;;;;;;;;1.00;1.00;;;;;15.80;68.40;100696.94;5092140;28;8995;-68
2023/09/19 04:29:46;;;;;;;;;1.00;1.00;;;;;15.81;68.78;100695.88;5069555;28;8889;-69
2023/09/19 04:32:13;;;;;;;;;1.00;0.25;;;;;15.88;68.72;100694.91;5049801;28;8968;-69
2023/09/19 04:34:39;;;;;;;;;4.33;2.00;;;;;15.90;68.87;100699.06;5052040;28;8824;-69
2023/09/19 04:37:06;;;;;;;;;0.67;0.67;;;;;15.87;68.82;100698.69;5069610;28;8989;-68
2023/09/19 04:39:33;;;;;;;;;1.00;0.00;;;;;15.88;69.22;100701.22;5065684;28;8907;-68
2023/09/19 04:42:00;;;;;;;;;0.00;0.00;;;;;15.89;69.52;100705.56;5065406;28;8907;-69
2023/09/19 04:44:27;;;;;;;;;0.00;0.00;;;;;15.90;70.01;100703.69;5069586;28;8848;-70
2023/09/19 04:46:54;;;;;;;;;1.00;0.00;;;;;15.89;70.37;100705.56;5067520;28;8947;-69
2023/09/19 04:49:21;;;;;;;;;2.00;0.33;;;;;15.85;70.20;100701.66;5069947;28;8992;-69
2023/09/19 04:51:47;;;;;;;;;1.25;0.00;;;;;15.83;70.62;100699.16;5070071;28;8904;-69
2023/09/19 04:54:14;;;;;;;;;0.00;0.00;;;;;15.80;70.76;100710.50;5065957;28;8929;-68
2023/09/19 04:56:41;;;;;;;;;0.25;0.25;;;;;15.76;71.19;100709.31;5068478;28;8860;-69
2023/09/19 04:59:07;;;;;;;;;0.00;0.00;;;;;15.74;71.07;100716.84;5077271;28;8809;-69
2023/09/19 05:01:34;;;;;;;;;1.00;0.00;;;;;15.71;71.56;100720.00;5069082;28;8930;-69
2023/09/19 05:04:01;;;;;;;;;0.00;0.00;;;;;15.70;71.77;100714.81;5067536;28;9003;-70
2023/09/19 05:06:27;;;;;;;;;1.00;1.00;;;;;15.62;71.57;100715.94;5066571;28;8911;-69
2023/09/19 05:08:54;;;;;;;;;2.00;0.00;;;;;15.66;72.31;100703.59;5059951;28;9050;-69
2023/09/19 05:11:22;;;;;;;;;0.00;0.00;;;;;15.67;71.93;100713.41;5070103;28;8911;-69
2023/09/19 05:13:55;;;;;;;;;0.67;0.67;;;;;15.67;72.24;100718.81;5069868;28;9550;-70
2023/09/19 05:16:22;;;;;;;;;0.00;0.00;;;;;15.67;72.22;100715.28;5050171;28;9034;-69
2023/09/19 05:18:49;;;;;;;;;0.67;0.67;;;;;15.65;72.34;100715.53;5051067;28;8918;-69
2023/09/19 05:21:17;;;;;;;;;0.00;0.00;;;;;15.62;72.74;100701.56;5066934;28;8956;-68
2023/09/19 05:23:43;;;;;;;;;0.00;0.00;;;;;15.62;72.62;100702.38;5069814;28;8989;-68
2023/09/19 05:26:11;;;;;;;;;1.00;1.00;;;;;15.66;72.91;100717.19;5068794;28;8876;-69
2023/09/19 05:28:37;;;;;;;;;1.00;0.00;;;;;15.66;72.83;100709.03;5063359;28;8831;-70
2023/09/19 05:31:04;;;;;;;;;0.67;0.00;;;;;15.65;73.20;100707.38;5063298;28;8891;-69
2023/09/19 05:33:31;;;;;;;;;1.00;0.00;;;;;15.68;73.18;100709.66;5070588;28;9118;-68
2023/09/19 05:35:58;;;;;;;;;0.67;0.00;;;;;15.69;73.06;100707.75;5071011;28;9058;-68
2023/09/19 05:38:27;;;;;;;;;1.00;0.00;;;;;15.68;73.17;100720.50;5069245;28;8910;-69
2023/09/19 05:40:54;;;;;;;;;0.00;0.00;;;;;15.67;73.17;100718.00;5090780;28;8906;-69
2023/09/19 05:43:21;;;;;;;;;2.00;1.00;;;;;15.64;73.03;100716.56;5059464;28;9078;-69
2023/09/19 05:45:48;;;;;;;;;0.67;0.67;;;;;15.60;73.39;100723.50;5071928;28;9963;-69
2023/09/19 05:48:15;;;;;;;;;1.33;1.00;;;;;15.58;73.39;100721.00;5096854;28;9767;-70
2023/09/19 05:50:43;;;;;;;;;1.67;1.00;;;;;15.51;73.02;100724.88;5073091;28;9693;-69
2023/09/19 05:53:12;;;;;;;;;0.00;0.00;;;;;15.51;73.55;100720.25;5072397;28;8996;-68
2023/09/19 05:55:39;;;;;;;;;3.00;3.00;;;;;15.50;73.33;100718.63;5069061;28;8914;-68
2023/09/19 05:58:07;;;;;;;;;2.00;2.00;;;;;15.45;73.37;100728.50;5069641;28;9055;-70
2023/09/19 06:00:33;;;;;;;;;2.33;1.67;;;;;15.43;73.71;100741.47;5069166;28;9075;-70
2023/09/19 06:03:03;;;;;;;;;1.00;1.00;;;;;15.41;73.79;100730.03;5069894;28;8926;-69
2023/09/19 06:05:31;;;;;;;;;0.00;0.00;;;;;15.30;74.21;100732.44;5089182;28;8916;-69
2023/09/19 06:08:00;;;;;;;;;1.00;1.00;;;;;15.28;74.25;100741.88;5069387;28;9068;-70
2023/09/19 06:10:28;;;;;;;;;1.00;1.00;;;;;15.30;74.61;100728.91;5068759;28;8922;-69
2023/09/19 06:12:57;;;;;;;;;1.33;1.33;;;;;15.32;74.79;100740.38;5065734;22;8973;-67
2023/09/19 06:15:25;;;;;;;;;2.33;1.00;;;;;15.27;74.95;100732.06;5046761;28;9008;-68
2023/09/19 06:17:57;;;;;;;;;2.33;1.67;;;;;15.28;74.83;100715.56;5051998;28;9023;-68
2023/09/19 06:20:27;;;;;;;;;2.00;1.00;;;;;15.30;75.10;100718.06;5048416;28;9068;-68
2023/09/19 06:22:54;;;;;;;;;1.50;1.50;;;;;15.34;74.82;100728.22;5020789;28;9130;-69
2023/09/19 06:25:21;;;;;;;;;2.00;1.33;;;;;15.37;74.98;100729.66;5029406;28;8872;-67
2023/09/19 06:27:54;;;;;;;;;0.00;0.00;;;;;15.44;74.79;100721.44;5041877;28;9091;-68
2023/09/19 06:30:25;;;;;;;;;0.00;0.00;;;;;15.45;74.54;100723.91;5028855;28;9779;-68
2023/09/19 06:32:59;;;;;;;;;1.67;1.33;;;;;15.48;75.54;100733.47;5023766;28;8821;-67
2023/09/19 06:35:29;;;;;;;;;2.67;1.33;;;;;15.39;74.87;100727.53;5020265;28;9005;-68
2023/09/19 06:37:57;;;;;;;;;0.00;0.00;;;;;15.36;75.26;100727.19;5051088;28;9588;-67
2023/09/19 06:40:25;;;;;;;;;3.00;2.00;;;;;15.32;75.11;100737.66;5048378;28;9060;-66
2023/09/19 06:42:55;;;;;;;;;2.00;2.00;;;;;15.36;75.19;100729.88;4997546;28;8899;-67
2023/09/19 06:45:22;;;;;;;;;3.33;1.00;;;;;15.38;75.06;100741.31;5024340;28;8936;-67
2023/09/19 06:47:51;;;;;;;;;2.33;2.00;;;;;15.36;75.37;100740.75;5015643;28;9691;-66
2023/09/19 06:50:22;;;;;;;;;0.50;0.50;;;;;15.34;75.60;100736.34;5020979;28;9052;-68
2023/09/19 06:52:54;;;;;;;;;1.00;1.00;;;;;15.33;75.46;100740.13;5032671;28;8960;-67
2023/09/19 06:55:24;;;;;;;;;1.00;1.00;;;;;15.37;75.55;100739.69;5036281;28;8974;-67
2023/09/19 06:57:54;;;;;;;;;1.00;1.00;;;;;15.45;75.62;100758.34;5013803;28;8981;-66
2023/09/19 07:00:25;;;;;;;;;1.33;1.33;;;;;15.42;75.53;100739.81;5030751;28;8991;-67
2023/09/19 07:03:00;;;;;;;;;2.00;1.00;;;;;15.48;75.67;100749.75;5030299;28;9714;-67
2023/09/19 07:05:31;;;;;;;;;2.00;2.00;;;;;15.45;75.33;100753.75;5014043;28;9024;-67
2023/09/19 07:07:59;;;;;;;;;2.00;1.00;;;;;15.47;75.90;100753.50;5012807;28;8935;-67
2023/09/19 07:10:27;;;;;;;;;1.00;1.00;;;;;15.50;75.65;100759.31;5028902;28;8923;-67
2023/09/19 07:13:00;;;;;;;;;2.00;2.00;;;;;15.51;75.82;100769.09;5031319;28;9009;-67
2023/09/19 07:15:28;;;;;;;;;1.00;1.00;;;;;15.52;76.50;100769.94;5031768;28;9068;-67
2023/09/19 07:17:56;;;;;;;;;1.00;1.00;;;;;15.57;76.22;100754.63;5046616;28;9726;-68
2023/09/19 07:20:28;;;;;;;;;2.00;1.00;;;;;15.59;76.15;100760.63;5030343;28;9079;-67
2023/09/19 07:22:55;;;;;;;;;2.00;1.00;;;;;15.60;76.07;100756.06;5030308;28;9071;-67
2023/09/19 07:25:21;;;;;;;;;2.00;2.00;;;;;15.61;75.68;100759.59;5030431;28;9081;-67
2023/09/19 07:27:48;;;;;;;;;2.67;2.00;;;;;15.53;75.82;100756.16;5030582;28;8910;-67
2023/09/19 07:30:16;;;;;;;;;1.00;1.00;;;;;15.54;76.38;100760.50;5035602;28;9024;-68
2023/09/19 07:32:43;;;;;;;;;1.00;1.00;;;;;15.56;75.73;100771.16;5031255;28;9055;-68
2023/09/19 07:35:09;;;;;;;;;2.00;2.00;;;;;15.52;75.85;100770.78;5031204;28;9229;-67
2023/09/19 07:37:36;;;;;;;;;3.00;3.00;;;;;15.54;75.54;100774.06;5031156;28;8979;-68
2023/09/19 07:40:07;;;;;;;;;1.00;1.00;;;;;15.61;75.64;100770.47;5031479;28;9802;-67
2023/09/19 07:42:35;;;;;;;;;1.33;1.00;;;;;15.67;75.31;100774.97;5031183;28;9076;-67
2023/09/19 07:45:01;;;;;;;;;2.67;2.33;;;;;15.70;75.66;100771.81;5030999;28;8947;-68
2023/09/19 07:47:30;;;;;;;;;0.67;0.67;;;;;15.74;75.28;100771.13;5012973;28;8920;-67
2023/09/19 07:49:56;;;;;;;;;2.00;1.00;;;;;15.73;75.05;100772.19;5029715;28;8910;-67
2023/09/19 07:52:23;;;;;;;;;2.00;0.33;;;;;15.81;75.46;100773.75;5030731;28;8993;-67
2023/09/19 07:54:50;;;;;;;;;2.33;2.00;;;;;15.82;75.46;100764.53;5030674;28;9024;-68
2023/09/19 07:57:16;;;;;;;;;2.00;1.00;;;;;15.90;75.68;100766.94;5029366;28;8932;-68
2023/09/19 07:59:43;;;;;;;;;1.00;1.00;;;;;15.96;76.14;100776.03;5030755;28;9871;-67
2023/09/19 08:02:15;;;;;;;;;2.67;2.67;;;;;15.95;75.82;100771.66;5030791;28;9013;-68
2023/09/19 08:04:43;;;;;;;;;6.00;2.00;;;;;15.88;76.13;100776.34;5030747;28;8920;-68
2023/09/19 08:07:11;;;;;;;;;2.00;1.00;;;;;15.84;76.29;100770.59;5030254;28;8944;-69
2023/09/19 08:09:38;;;;;;;;;2.00;2.00;;;;;15.93;75.78;100766.47;5013113;28;9000;-67
2023/09/19 08:12:07;;;;;;;;;2.00;1.00;;;;;15.99;75.67;100770.16;5012617;28;9019;-67
2023/09/19 08:14:34;;;;;;;;;3.00;2.67;;;;;16.03;75.49;100771.34;5029442;28;8930;-68
2023/09/19 08:17:00;;;;;;;;;3.00;2.00;;;;;16.04;75.11;100746.69;5030351;28;8918;-67
2023/09/19 08:19:31;;;;;;;;;1.25;1.00;;;;;16.10;75.26;100746.81;5012977;28;8930;-68
2023/09/19 08:21:58;;;;;;;;;1.50;1.00;;;;;16.14;75.15;100748.81;5030579;28;8979;-68
2023/09/19 08:24:29;;;;;;;;;1.25;1.25;;;;;16.14;75.51;100751.53;5012872;28;9558;-67
2023/09/19 08:26:57;;;;;;;;;3.33;2.00;;;;;16.10;75.45;100754.94;5029926;28;8983;-67
2023/09/19 08:29:27;;;;;;;;;2.67;2.67;;;;;16.08;75.37;100749.72;5029326;28;8957;-67
2023/09/19 08:31:55;;;;;;;;;7.33;2.00;;;;;16.14;75.48;100754.25;5030364;28;8918;-68
2023/09/19 08:34:23;;;;;;;;;2.00;1.00;;;;;16.25;75.50;100745.31;5028981;28;9000;-67
2023/09/19 08:36:52;;;;;;;;;4.00;1.33;;;;;16.28;75.49;100738.56;5030075;28;9022;-67
2023/09/19 08:39:19;;;;;;;;;1.00;1.00;;;;;16.33;75.38;100752.28;5030259;28;8891;-67
2023/09/19 08:41:45;;;;;;;;;1.75;1.00;;;;;16.34;75.19;100748.50;5030255;28;8829;-68
2023/09/19 08:44:12;;;;;;;;;3.00;2.00;;;;;16.36;75.40;100759.13;5012654;28;8845;-67
2023/09/19 08:46:41;;;;;;;;;4.75;2.75;;;;;16.35;75.20;100750.16;5028726;28;8845;-68
2023/09/19 08:49:22;;;;;;;;;1.25;1.25;;;;;16.41;75.07;100743.78;5030259;28;8844;-67
2023/09/19 08:52:01;;;;;;;;;4.50;3.50;;;;;16.39;74.43;100745.91;5030154;28;8861;-67
2023/09/19 08:54:33;;;;;;;;;2.25;2.25;;;;;16.48;74.04;100744.47;5030027;28;8868;-68
2023/09/19 08:57:08;;;;;;;;;2.00;2.00;;;;;16.49;74.24;100737.19;5012379;28;8859;-67
2023/09/19 08:59:39;;;;;;;;;2.75;2.50;;;;;16.45;73.91;100739.53;5030108;28;8829;-68
2023/09/19 09:02:13;;;;;;;;;3.00;3.00;;;;;16.40;73.43;100758.41;5029842;28;8837;-68
2023/09/19 09:04:44;;;;;;;;;3.33;2.00;;;;;16.32;73.73;100756.03;5012655;28;8916;-68
2023/09/19 09:07:12;;;;;;;;;3.25;1.75;;;;;16.29;73.76;100751.91;5032430;28;9060;-68
2023/09/19 09:09:42;;;;;;;;;2.75;2.75;;;;;16.27;73.23;100750.50;5034112;28;8821;-67
2023/09/19 09:12:13;;;;;;;;;3.67;2.33;;;;;16.26;73.38;100757.00;5033786;28;8856;-68
2023/09/19 09:14:43;;;;;;;;;3.50;3.00;;;;;16.27;73.43;100764.06;4999673;28;8932;-69
2023/09/19 09:17:10;;;;;;;;;3.50;2.25;;;;;16.29;73.05;100753.81;5015991;28;8845;-67
2023/09/19 09:19:38;;;;;;;;;2.00;2.00;;;;;16.27;73.19;100745.88;5033948;28;8848;-67
2023/09/19 09:22:11;;;;;;;;;2.50;1.75;;;;;16.31;73.05;100759.81;5033823;28;8837;-68
2023/09/19 09:24:53;;;;;;;;;2.33;2.33;;;;;16.28;73.14;100749.41;5034413;28;8848;-67
2023/09/19 09:27:23;;;;;;;;;2.00;2.00;;;;;16.28;73.16;100752.97;5033331;28;9077;-68
2023/09/19 09:29:54;;;;;;;;;3.00;1.00;;;;;16.40;73.04;100754.88;5032546;28;8916;-66
2023/09/19 09:32:29;;;;;;;;;2.25;2.25;;;;;16.47;72.63;100747.44;5033727;28;8955;-66
2023/09/19 09:34:57;;;;;;;;;4.00;2.00;;;;;16.32;72.28;100743.28;5033559;28;8879;-67
2023/09/19 09:37:30;;;;;;;;;2.00;2.00;;;;;16.27;72.74;100754.03;5032154;28;8840;-67
2023/09/19 09:40:18;;;;;;;;;3.00;3.00;;;;;16.37;73.39;100752.66;5015770;28;8837;-67
2023/09/19 09:42:52;;;;;;;;;3.33;3.33;;;;;16.35;73.71;100744.72;5015672;28;9004;-67
2023/09/19 09:48:14;;;;;;;;;1.25;1.00;;;;;16.52;73.88;100742.13;5033063;28;8930;-66
2023/09/19 09:53:21;;;;;;;;;6.50;2.75;;;;;16.56;73.64;100730.53;5032220;28;8833;-68
2023/09/19 09:56:07;;;;;;;;;3.00;2.75;;;;;16.54;73.52;100746.25;5036628;28;8856;-67
2023/09/19 09:58:35;;;;;;;;;2.00;1.00;;;;;16.61;73.30;100737.16;5034180;28;8855;-67
2023/09/19 10:01:08;;;;;;;;;1.00;1.00;;;;;16.65;73.47;100733.75;5034125;28;8952;-66
2023/09/19 10:03:49;;;;;;;;;2.00;2.00;;;;;16.75;73.36;100727.75;5033271;28;8825;-68
2023/09/19 10:06:26;;;;;;;;;3.75;3.25;;;;;16.83;73.28;100724.66;5015139;28;8853;-67
2023/09/19 10:11:42;;;;;;;;;4.00;4.00;;;;;16.86;73.34;100712.50;5031916;28;9011;-68
2023/09/19 10:14:12;;;;;;;;;7.00;4.00;;;;;16.77;72.79;100710.13;5032710;28;8931;-68
2023/09/19 10:16:47;;;;;;;;;7.33;5.00;;;;;16.80;73.24;100703.38;5014235;28;8994;-67
2023/09/19 10:19:37;;;;;;;;;5.00;3.75;;;;;16.92;72.94;100700.63;5032680;28;9064;-68
2023/09/19 10:22:05;;;;;;;;;6.00;3.00;;;;;16.86;72.62;100694.28;5032632;28;8831;-68
2023/09/19 10:24:35;;;;;;;;;4.00;3.00;;;;;16.95;72.96;100681.94;5032870;28;8951;-67
2023/09/19 10:27:08;;;;;;;;;3.00;2.50;;;;;17.03;72.07;100688.91;5032617;28;8847;-67
2023/09/19 10:29:39;;;;;;;;;2.75;2.75;;;;;17.12;71.74;100695.63;5031225;28;8841;-67
2023/09/19 10:32:06;;;;;;;;;3.25;3.00;;;;;17.01;71.97;100683.72;5032106;28;8833;-68
2023/09/19 10:34:36;;;;;;;;;3.25;3.25;;;;;16.90;72.28;100683.75;5032110;28;8802;-67
2023/09/19 10:37:05;;;;;;;;;5.25;3.25;;;;;16.84;72.57;100681.97;5014194;28;8976;-67
2023/09/19 10:39:33;;;;;;;;;2.75;2.75;;;;;16.96;72.37;100680.06;5031042;28;8829;-67
2023/09/19 10:42:05;;;;;;;;;6.00;2.00;;;;;16.98;72.38;100677.94;5032190;28;8821;-67
2023/09/19 10:44:33;;;;;;;;;4.75;2.25;;;;;16.88;72.65;100675.81;5032267;28;8817;-66
2023/09/19 10:46:59;;;;;;;;;2.25;1.75;;;;;16.90;73.07;100672.88;5031891;28;8826;-67
2023/09/19 10:49:26;;;;;;;;;3.75;3.50;;;;;16.95;72.82;100672.97;5032244;28;8898;-67
2023/09/19 10:51:58;;;;;;;;;5.50;2.00;;;;;16.97;72.65;100676.25;5032135;28;8903;-67
2023/09/19 10:54:30;;;;;;;;;1.50;1.50;;;;;17.07;72.14;100676.50;5014351;28;8908;-67
2023/09/19 10:56:59;;;;;;;;;2.25;2.25;;;;;16.95;72.03;100667.53;5030662;28;8959;-67
2023/09/19 10:59:27;;;;;;;;;3.50;1.75;;;;;16.97;71.93;100676.25;5031995;28;8809;-66
2023/09/19 11:01:58;;;;;;;;;2.00;2.00;;;;;17.01;71.59;100664.69;5014262;28;8919;-67
2023/09/19 11:04:30;;;;;;;;;2.00;2.00;;;;;17.09;71.73;100660.75;5032042;28;8809;-67
2023/09/19 11:07:14;;;;;;;;;2.25;2.00;;;;;16.99;71.73;100652.41;5031645;28;8833;-67
2023/09/19 11:09:47;;;;;;;;;1.75;1.75;;;;;17.05;71.35;100663.16;5030737;28;9553;-68
2023/09/19 11:12:35;;;;;;;;;2.75;2.75;;;;;17.05;71.90;100657.72;5030491;28;8817;-68
2023/09/19 11:15:10;;;;;;;;;2.75;2.00;;;;;17.02;72.01;100668.22;5031810;28;8849;-68
2023/09/19 11:17:41;;;;;;;;;2.00;2.00;;;;;17.03;71.99;100662.53;5013579;28;8817;-67
2023/09/19 11:22:54;;;;;;;;;5.00;3.00;;;;;17.21;71.63;100656.09;5030202;28;8829;-67
2023/09/19 11:25:29;;;;;;;;;2.75;1.25;;;;;17.23;71.39;100639.53;5013942;28;8837;-68
2023/09/19 11:28:12;;;;;;;;;2.75;2.00;;;;;17.24;71.06;100643.91;5028973;28;8853;-69
2023/09/19 11:30:40;;;;;;;;;4.25;1.50;;;;;17.23;71.59;100637.63;5013798;28;8833;-68
2023/09/19 11:33:22;;;;;;;;;2.00;2.00;;;;;17.28;71.28;100647.78;5031282;28;8817;-68
2023/09/19 11:36:15;;;;;;;;;1.75;1.75;;;;;17.30;71.40;100665.53;5031304;28;8870;-68
2023/09/19 11:38:42;;;;;;;;;1.25;1.25;;;;;17.23;71.29;100644.97;5018557;28;9559;-68
2023/09/19 11:41:25;;;;;;;;;3.00;1.50;;;;;17.27;71.17;100643.41;4996517;28;8825;-68
2023/09/19 11:44:06;;;;;;;;;0.75;0.75;;;;;17.33;71.50;100653.31;5029706;28;8950;-67
2023/09/19 11:46:34;;;;;;;;;1.00;1.00;;;;;17.30;71.22;100660.09;5030687;28;8817;-68
2023/09/19 11:49:13;;;;;;;;;2.00;1.00;;;;;17.28;71.12;100656.78;5030551;28;8883;-67
2023/09/19 11:51:44;;;;;;;;;1.25;1.25;;;;;17.27;70.91;100665.19;5020484;28;8842;-68
2023/09/19 11:54:18;;;;;;;;;4.00;2.00;;;;;17.23;71.10;100672.19;5028918;28;8817;-68
2023/09/19 11:56:48;;;;;;;;;1.25;1.25;;;;;17.11;71.54;100665.97;5029192;28;8845;-68
2023/09/19 11:59:23;;;;;;;;;1.75;1.75;;;;;17.07;72.18;100653.91;5030725;28;8825;-68